createdAt,value
2023-12-23T00:01:48.619Z,10.89
2023-12-23T00:04:15.850Z,11.04
2023-12-23T00:06:42.643Z,11.07
2023-12-23T00:09:09.416Z,10.66
2023-12-23T00:11:36.166Z,10.66
2023-12-23T00:14:03.006Z,10.81
2023-12-23T00:16:29.708Z,10.83
2023-12-23T00:18:56.508Z,11.08
2023-12-23T00:21:23.693Z,11.11
2023-12-23T00:23:50.542Z,11.11
2023-12-23T00:26:18.046Z,10.97
2023-12-23T00:28:44.739Z,10.88
2023-12-23T00:31:11.741Z,10.75
2023-12-23T00:33:38.461Z,10.79
2023-12-23T00:36:05.281Z,11.05
2023-12-23T00:38:32.064Z,11.20
2023-12-23T00:40:58.884Z,11.23
2023-12-23T00:43:25.794Z,11.06
2023-12-23T00:45:55.664Z,11.01
2023-12-23T00:48:22.602Z,10.81
2023-12-23T00:50:49.708Z,10.92
2023-12-23T00:53:16.555Z,10.95
2023-12-23T00:55:43.344Z,10.69
2023-12-23T00:58:10.129Z,10.62
2023-12-23T01:00:36.903Z,10.55
2023-12-23T01:03:04.896Z,10.73
2023-12-23T01:05:31.700Z,10.87
2023-12-23T01:07:58.381Z,10.92
2023-12-23T01:10:27.688Z,10.86
2023-12-23T01:12:55.103Z,10.57
2023-12-23T01:15:21.848Z,10.56
2023-12-23T01:17:49.257Z,10.48
2023-12-23T01:20:16.278Z,10.50
2023-12-23T01:22:43.191Z,10.49
2023-12-23T01:25:10.022Z,10.48
2023-12-23T01:27:39.249Z,10.49
2023-12-23T01:30:06.805Z,10.56
2023-12-23T01:32:33.597Z,10.20
2023-12-23T01:35:01.102Z,10.07
2023-12-23T01:37:27.845Z,10.01
2023-12-23T01:39:54.593Z,10.05
2023-12-23T01:42:21.510Z,10.13
2023-12-23T01:44:48.228Z,10.34
2023-12-23T01:47:15.919Z,10.44
2023-12-23T01:49:43.809Z,10.64
2023-12-23T01:52:11.351Z,10.61
2023-12-23T01:54:38.141Z,10.23
2023-12-23T01:57:04.954Z,10.23
2023-12-23T01:59:31.669Z,10.25
2023-12-23T02:01:59.114Z,10.15
2023-12-23T02:04:25.994Z,10.27
2023-12-23T02:06:52.626Z,10.58
2023-12-23T02:09:19.353Z,10.85
2023-12-23T02:12:01.185Z,10.67
2023-12-23T02:14:33.065Z,10.50
2023-12-23T02:16:59.991Z,10.56
2023-12-23T02:19:26.775Z,10.63
2023-12-23T02:21:53.435Z,10.75
2023-12-23T02:24:20.077Z,11.03
2023-12-23T02:26:50.270Z,11.12
2023-12-23T02:29:18.505Z,10.96
2023-12-23T02:31:45.670Z,10.86
2023-12-23T02:34:13.390Z,10.92
2023-12-23T02:36:40.496Z,11.04
2023-12-23T02:39:07.323Z,11.22
2023-12-23T02:41:34.045Z,11.38
2023-12-23T02:44:00.791Z,11.37
2023-12-23T02:46:27.499Z,11.41
2023-12-23T02:48:54.286Z,11.44
2023-12-23T02:51:20.988Z,11.57
2023-12-23T02:53:47.796Z,11.75
2023-12-23T02:56:14.552Z,11.78
2023-12-23T02:58:41.326Z,11.75
2023-12-23T03:01:10.725Z,11.73
2023-12-23T03:03:37.589Z,11.81
2023-12-23T03:06:04.406Z,11.83
2023-12-23T03:08:31.129Z,11.76
2023-12-23T03:10:57.859Z,11.65
2023-12-23T03:13:24.724Z,11.63
2023-12-23T03:15:51.402Z,11.60
2023-12-23T03:18:18.333Z,11.76
2023-12-23T03:20:45.066Z,11.92
2023-12-23T03:23:11.813Z,11.80
2023-12-23T03:25:38.528Z,11.80
2023-12-23T03:28:05.279Z,11.73
2023-12-23T03:30:32.094Z,11.79
2023-12-23T03:32:59.076Z,12.13
2023-12-23T03:35:25.760Z,12.11
2023-12-23T03:37:52.541Z,11.54
2023-12-23T03:40:19.381Z,11.26
2023-12-23T03:42:46.118Z,11.41
2023-12-23T03:45:12.861Z,11.53
2023-12-23T03:47:41.309Z,11.30
2023-12-23T03:50:08.363Z,11.38
2023-12-23T03:52:35.093Z,11.47
2023-12-23T03:55:01.967Z,11.21
2023-12-23T03:57:28.696Z,11.22
2023-12-23T03:59:55.428Z,11.20
2023-12-23T04:02:22.292Z,11.15
2023-12-23T04:04:49.277Z,11.20
2023-12-23T04:07:16.077Z,11.28
2023-12-23T04:09:42.903Z,11.30
2023-12-23T04:12:12.736Z,11.30
2023-12-23T04:14:41.461Z,11.23
2023-12-23T04:17:08.780Z,11.17
2023-12-23T04:19:35.494Z,11.20
2023-12-23T04:22:03.012Z,11.12
2023-12-23T04:24:29.827Z,11.10
2023-12-23T04:26:56.518Z,11.23
2023-12-23T04:29:23.312Z,11.09
2023-12-23T04:31:50.192Z,11.08
2023-12-23T04:34:17.043Z,10.93
2023-12-23T04:36:43.818Z,10.86
2023-12-23T04:39:10.590Z,10.88
2023-12-23T04:41:37.418Z,10.90
2023-12-23T04:44:07.123Z,10.98
2023-12-23T04:46:33.942Z,11.07
2023-12-23T04:49:00.718Z,11.18
2023-12-23T04:51:27.495Z,11.11
2023-12-23T04:53:54.265Z,11.13
2023-12-23T04:56:21.123Z,11.18
2023-12-23T04:58:48.320Z,11.07
2023-12-23T05:01:15.379Z,11.09
2023-12-23T05:03:42.249Z,11.16
2023-12-23T05:06:09.124Z,11.20
2023-12-23T05:08:35.768Z,11.17
2023-12-23T05:11:03.315Z,11.16
2023-12-23T05:13:30.063Z,10.97
2023-12-23T05:15:56.957Z,10.77
2023-12-23T05:18:23.789Z,10.78
2023-12-23T05:20:50.515Z,10.72
2023-12-23T05:23:18.137Z,10.65
2023-12-23T05:25:45.086Z,10.58
2023-12-23T05:28:12.026Z,10.49
2023-12-23T05:30:38.747Z,10.48
2023-12-23T05:33:05.662Z,10.40
2023-12-23T05:35:32.438Z,10.46
2023-12-23T05:38:02.190Z,10.53
2023-12-23T05:40:30.748Z,10.58
2023-12-23T05:42:57.688Z,10.69
2023-12-23T05:45:24.330Z,10.76
2023-12-23T05:47:51.923Z,10.67
2023-12-23T05:50:19.121Z,10.72
2023-12-23T05:52:46.032Z,10.94
2023-12-23T05:55:12.866Z,11.12
2023-12-23T05:57:39.569Z,11.16
2023-12-23T06:00:09.295Z,11.09
2023-12-23T06:02:37.097Z,10.92
2023-12-23T06:05:04.342Z,11.02
2023-12-23T06:07:31.260Z,11.13
2023-12-23T06:09:57.980Z,11.17
2023-12-23T06:12:25.222Z,11.02
2023-12-23T06:14:52.569Z,11.02
2023-12-23T06:17:19.354Z,11.10
2023-12-23T06:19:46.113Z,11.12
2023-12-23T06:22:13.655Z,11.04
2023-12-23T06:24:40.353Z,11.14
2023-12-23T06:27:07.013Z,11.22
2023-12-23T06:29:33.641Z,11.11
2023-12-23T06:32:01.550Z,10.92
2023-12-23T06:34:28.301Z,10.71
2023-12-23T06:36:55.344Z,10.82
2023-12-23T06:39:22.005Z,10.88
2023-12-23T06:41:49.035Z,10.86
2023-12-23T06:44:15.821Z,10.82
2023-12-23T06:46:42.575Z,10.67
2023-12-23T06:49:09.438Z,10.46
2023-12-23T06:51:36.554Z,10.23
2023-12-23T06:54:03.886Z,10.21
2023-12-23T06:56:30.594Z,10.20
2023-12-23T06:58:57.446Z,10.34
2023-12-23T07:01:24.298Z,10.42
2023-12-23T07:03:51.196Z,10.51
2023-12-23T07:06:18.047Z,10.45
2023-12-23T07:08:44.804Z,10.34
2023-12-23T07:11:12.398Z,10.21
2023-12-23T07:13:39.492Z,10.24
2023-12-23T07:16:06.369Z,10.19
2023-12-23T07:18:33.325Z,10.33
2023-12-23T07:21:01.971Z,10.41
2023-12-23T07:23:29.115Z,10.40
2023-12-23T07:25:55.873Z,10.41
2023-12-23T07:28:22.634Z,10.50
2023-12-23T07:30:49.422Z,10.48
2023-12-23T07:33:16.194Z,10.33
2023-12-23T07:35:42.933Z,10.10
2023-12-23T07:38:09.741Z,9.98
2023-12-23T07:40:36.820Z,10.20
2023-12-23T07:43:03.991Z,10.37
2023-12-23T07:45:30.763Z,10.55
2023-12-23T07:47:57.896Z,10.54
2023-12-23T07:50:24.825Z,10.52
2023-12-23T07:52:51.735Z,10.64
2023-12-23T07:55:18.690Z,10.72
2023-12-23T07:57:46.838Z,10.81
2023-12-23T08:00:15.598Z,10.83
2023-12-23T08:02:42.339Z,10.82
2023-12-23T08:05:09.765Z,10.88
2023-12-23T08:07:37.938Z,10.77
2023-12-23T08:10:06.154Z,10.72
2023-12-23T08:12:32.847Z,10.76
2023-12-23T08:14:59.672Z,10.86
2023-12-23T08:17:26.497Z,10.74
2023-12-23T08:19:53.361Z,10.72
2023-12-23T08:22:20.030Z,10.67
2023-12-23T08:24:46.723Z,10.72
2023-12-23T08:27:13.845Z,10.78
2023-12-23T08:29:40.962Z,10.80
2023-12-23T08:32:07.682Z,10.75
2023-12-23T08:34:34.339Z,10.82
2023-12-23T08:37:00.967Z,10.85
2023-12-23T08:39:27.730Z,10.75
2023-12-23T08:41:54.471Z,10.61
2023-12-23T08:44:22.788Z,10.75
2023-12-23T08:46:49.873Z,10.69
2023-12-23T08:49:16.679Z,10.70
2023-12-23T08:51:43.442Z,10.89
2023-12-23T08:54:10.247Z,10.95
2023-12-23T08:56:36.959Z,11.07
2023-12-23T08:59:03.656Z,11.17
2023-12-23T09:01:30.816Z,11.28
2023-12-23T09:03:57.585Z,11.28
2023-12-23T09:06:24.343Z,11.33
2023-12-23T09:08:52.815Z,11.38
2023-12-23T09:11:19.952Z,11.59
2023-12-23T09:13:46.693Z,11.59
2023-12-23T09:16:13.356Z,11.68
2023-12-23T09:18:40.266Z,11.63
2023-12-23T09:21:07.049Z,11.70
2023-12-23T09:23:34.204Z,11.73
2023-12-23T09:26:00.994Z,11.66
2023-12-23T09:28:27.687Z,11.69
2023-12-23T09:30:54.425Z,11.51
2023-12-23T09:33:21.303Z,11.49
2023-12-23T09:35:48.048Z,11.50
2023-12-23T09:38:14.855Z,11.60
2023-12-23T09:40:41.675Z,11.76
2023-12-23T09:43:09.263Z,11.81
2023-12-23T09:45:37.484Z,11.96
2023-12-23T09:48:04.583Z,12.05
2023-12-23T09:50:31.522Z,12.04
2023-12-23T09:53:01.171Z,12.07
2023-12-23T09:55:28.964Z,12.18
2023-12-23T09:57:55.748Z,12.28
2023-12-23T10:00:22.572Z,12.30
2023-12-23T10:02:49.639Z,12.42
2023-12-23T10:05:16.783Z,12.38
2023-12-23T10:07:43.715Z,12.50
2023-12-23T10:10:11.578Z,12.64
2023-12-23T10:12:38.261Z,12.83
2023-12-23T10:15:05.397Z,12.72
2023-12-23T10:17:33.225Z,12.78
2023-12-23T10:20:00.148Z,13.01
2023-12-23T10:22:30.093Z,13.09
2023-12-23T10:24:57.608Z,13.08
2023-12-23T10:27:27.022Z,13.15
2023-12-23T10:29:54.755Z,13.10
2023-12-23T10:32:25.592Z,13.18
2023-12-23T10:34:54.557Z,13.26
2023-12-23T10:37:22.504Z,13.33
2023-12-23T10:39:55.510Z,13.51
2023-12-23T10:42:24.761Z,13.46
2023-12-23T10:44:52.567Z,13.59
2023-12-23T10:47:19.597Z,13.64
2023-12-23T10:49:47.652Z,13.48
2023-12-23T10:52:15.193Z,13.61
2023-12-23T10:54:42.048Z,13.91
2023-12-23T10:57:09.847Z,14.14
2023-12-23T10:59:36.630Z,14.16
2023-12-23T11:02:08.811Z,14.17
2023-12-23T11:04:35.680Z,14.27
2023-12-23T11:07:04.040Z,14.25
2023-12-23T11:09:31.851Z,14.17
2023-12-23T11:11:59.313Z,13.84
2023-12-23T11:14:26.189Z,14.00
2023-12-23T11:16:56.693Z,14.10
2023-12-23T11:19:23.540Z,14.25
2023-12-23T11:22:10.340Z,13.91
2023-12-23T11:24:37.679Z,13.90
2023-12-23T11:27:05.538Z,14.05
2023-12-23T11:29:32.303Z,14.07
2023-12-23T11:32:10.279Z,13.97
2023-12-23T11:34:37.553Z,13.83
2023-12-23T11:37:04.788Z,13.68
2023-12-23T11:39:31.614Z,13.78
2023-12-23T11:41:59.365Z,13.94
2023-12-23T11:44:26.518Z,14.23
2023-12-23T11:46:54.705Z,14.28
2023-12-23T11:49:21.589Z,14.36
2023-12-23T11:51:48.619Z,14.22
2023-12-23T11:54:15.544Z,14.16
2023-12-23T11:56:42.275Z,14.40
2023-12-23T11:59:09.030Z,14.67
2023-12-23T12:01:35.772Z,14.64
2023-12-23T12:04:02.552Z,14.73
2023-12-23T12:06:29.507Z,15.11
2023-12-23T12:08:56.928Z,15.39
2023-12-23T12:11:28.168Z,15.68
2023-12-23T12:14:00.765Z,15.93
2023-12-23T12:16:27.739Z,15.86
2023-12-23T12:18:54.537Z,15.71
2023-12-23T12:21:22.133Z,15.84
2023-12-23T12:23:48.883Z,16.04
2023-12-23T12:26:17.476Z,16.22
2023-12-23T12:28:47.556Z,16.72
2023-12-23T12:31:14.906Z,17.35
2023-12-23T12:33:42.938Z,17.77
2023-12-23T12:36:15.434Z,18.60
2023-12-23T12:38:43.429Z,19.77
2023-12-23T12:41:10.806Z,21.35
2023-12-23T12:43:44.239Z,23.97
2023-12-23T12:46:12.378Z,25.56
2023-12-23T12:48:39.334Z,27.49
2023-12-23T12:51:06.773Z,28.96
2023-12-23T12:53:33.855Z,30.21
2023-12-23T12:56:10.893Z,30.38
2023-12-23T12:58:37.899Z,29.63
2023-12-23T13:01:04.997Z,26.86
2023-12-23T13:03:31.823Z,26.57
2023-12-23T13:05:58.708Z,25.49
2023-12-23T13:08:25.537Z,24.63
2023-12-23T13:10:52.267Z,24.93
2023-12-23T13:13:19.025Z,25.18
2023-12-23T13:15:46.239Z,24.90
2023-12-23T13:18:12.930Z,25.08
2023-12-23T13:20:40.887Z,25.05
2023-12-23T13:23:07.720Z,25.75
2023-12-23T13:25:34.576Z,25.21
2023-12-23T13:28:01.381Z,23.07
2023-12-23T13:30:28.149Z,21.46
2023-12-23T13:32:55.167Z,19.83
2023-12-23T13:35:22.235Z,18.50
2023-12-23T13:37:49.001Z,18.09
2023-12-23T13:40:15.765Z,17.44
2023-12-23T13:42:42.536Z,17.36
2023-12-23T13:45:09.368Z,17.45
2023-12-23T13:47:36.214Z,17.54
2023-12-23T13:50:04.844Z,17.68
2023-12-23T13:52:31.739Z,17.51
2023-12-23T13:54:58.490Z,17.37
2023-12-23T13:57:27.226Z,17.26
2023-12-23T13:59:53.932Z,16.95
2023-12-23T14:02:20.719Z,16.56
2023-12-23T14:04:47.473Z,16.38
2023-12-23T14:07:14.281Z,15.94
2023-12-23T14:09:41.005Z,15.50
2023-12-23T14:12:08.248Z,15.49
2023-12-23T14:14:35.037Z,15.53
2023-12-23T14:17:01.733Z,15.54
2023-12-23T14:19:28.604Z,15.48
2023-12-23T14:21:55.885Z,15.43
2023-12-23T14:24:22.663Z,15.02
2023-12-23T14:26:49.382Z,14.53
2023-12-23T14:29:16.104Z,14.71
2023-12-23T14:31:42.859Z,14.67
2023-12-23T14:34:09.639Z,14.50
2023-12-23T14:36:36.864Z,14.51
2023-12-23T14:39:04.108Z,14.56
2023-12-23T14:41:30.968Z,14.71
2023-12-23T14:43:57.774Z,14.60
2023-12-23T14:46:24.827Z,14.64
2023-12-23T14:48:51.579Z,14.73
2023-12-23T14:51:18.716Z,14.84
2023-12-23T14:53:46.073Z,14.54
2023-12-23T14:56:13.011Z,14.77
2023-12-23T14:58:39.801Z,14.79
2023-12-23T15:01:07.638Z,14.66
2023-12-23T15:03:34.538Z,14.53
2023-12-23T15:06:02.400Z,14.46
2023-12-23T15:08:29.282Z,14.38
2023-12-23T15:10:56.039Z,14.34
2023-12-23T15:13:25.166Z,14.39
2023-12-23T15:15:52.011Z,14.42
2023-12-23T15:18:18.826Z,14.32
2023-12-23T15:20:46.352Z,14.25
2023-12-23T15:23:13.107Z,14.33
2023-12-23T15:25:39.915Z,14.40
2023-12-23T15:28:06.646Z,14.31
2023-12-23T15:30:33.457Z,14.29
2023-12-23T15:33:00.291Z,14.16
2023-12-23T15:35:27.175Z,14.08
2023-12-23T15:37:53.984Z,13.99
2023-12-23T15:40:20.956Z,13.80
2023-12-23T15:42:47.740Z,13.66
2023-12-23T15:45:14.556Z,13.71
2023-12-23T15:47:41.491Z,13.68
2023-12-23T15:50:08.580Z,13.58
2023-12-23T15:52:36.127Z,13.64
2023-12-23T15:55:03.897Z,13.50
2023-12-23T15:57:30.685Z,13.47
2023-12-23T15:59:59.128Z,13.50
2023-12-23T16:02:25.894Z,13.48
2023-12-23T16:04:52.678Z,13.51
2023-12-23T16:07:19.660Z,13.44
2023-12-23T16:09:46.468Z,13.42
2023-12-23T16:12:13.261Z,13.38
2023-12-23T16:14:42.709Z,13.26
2023-12-23T16:17:10.014Z,13.10
2023-12-23T16:19:36.984Z,13.01
2023-12-23T16:22:03.838Z,13.11
2023-12-23T16:24:30.636Z,13.20
2023-12-23T16:26:57.305Z,13.19
2023-12-23T16:29:24.065Z,13.03
2023-12-23T16:31:51.070Z,13.09
2023-12-23T16:34:17.892Z,13.09
2023-12-23T16:36:45.842Z,13.03
2023-12-23T16:39:12.674Z,13.01
2023-12-23T16:41:39.379Z,13.11
2023-12-23T16:44:06.710Z,13.14
2023-12-23T16:46:33.803Z,13.16
2023-12-23T16:49:00.647Z,13.02
2023-12-23T16:51:27.303Z,12.92
2023-12-23T16:53:54.103Z,12.73
2023-12-23T16:56:21.011Z,12.71
2023-12-23T16:58:51.019Z,12.73
2023-12-23T17:01:17.855Z,12.66
2023-12-23T17:03:44.717Z,12.54
2023-12-23T17:06:11.546Z,12.25
2023-12-23T17:08:39.377Z,12.22
2023-12-23T17:11:06.422Z,12.18
2023-12-23T17:13:34.684Z,12.15
2023-12-23T17:16:01.400Z,12.10
2023-12-23T17:18:28.142Z,12.03
2023-12-23T17:20:54.889Z,12.01
2023-12-23T17:23:26.483Z,11.96
2023-12-23T17:25:53.873Z,11.91
2023-12-23T17:28:21.083Z,11.84
2023-12-23T17:30:47.942Z,11.66
2023-12-23T17:33:14.863Z,11.43
2023-12-23T17:35:41.898Z,11.38
2023-12-23T17:38:10.685Z,11.49
2023-12-23T17:40:38.553Z,11.83
2023-12-23T17:43:07.102Z,11.96
2023-12-23T17:45:33.852Z,12.10
2023-12-23T17:48:00.614Z,12.06
2023-12-23T17:50:28.177Z,12.13
2023-12-23T17:52:55.619Z,11.96
2023-12-23T17:55:22.411Z,11.75
2023-12-23T17:57:49.427Z,11.70
2023-12-23T18:00:18.195Z,11.62
2023-12-23T18:02:45.079Z,11.46
2023-12-23T18:05:13.229Z,11.60
2023-12-23T18:07:40.089Z,11.59
2023-12-23T18:10:07.120Z,11.52
2023-12-23T18:12:34.398Z,11.62
2023-12-23T18:15:01.249Z,11.57
2023-12-23T18:17:30.726Z,11.46
2023-12-23T18:19:57.591Z,11.49
2023-12-23T18:22:24.367Z,11.42
2023-12-23T18:24:51.123Z,11.32
2023-12-23T18:27:17.742Z,11.30
2023-12-23T18:29:44.453Z,11.15
2023-12-23T18:32:12.362Z,10.89
2023-12-23T18:34:39.096Z,10.61
2023-12-23T18:37:06.127Z,10.54
2023-12-23T18:39:32.783Z,10.76
2023-12-23T18:41:59.482Z,10.62
2023-12-23T18:44:26.200Z,10.64
2023-12-23T18:46:55.198Z,10.72
2023-12-23T18:49:21.974Z,10.66
2023-12-23T18:51:48.631Z,10.66
2023-12-23T18:54:16.459Z,10.75
2023-12-23T18:56:43.288Z,10.66
2023-12-23T18:59:10.220Z,10.56
2023-12-23T19:01:36.920Z,10.45
2023-12-23T19:04:05.055Z,10.21
2023-12-23T19:06:34.105Z,10.12
2023-12-23T19:09:00.858Z,9.95
2023-12-23T19:11:27.809Z,9.91
2023-12-23T19:13:54.784Z,10.10
2023-12-23T19:16:21.507Z,10.06
2023-12-23T19:18:48.276Z,10.08
2023-12-23T19:21:15.041Z,10.07
2023-12-23T19:23:41.866Z,10.16
2023-12-23T19:26:08.779Z,10.20
2023-12-23T19:28:37.472Z,10.29
2023-12-23T19:31:04.869Z,10.36
2023-12-23T19:33:31.734Z,10.30
2023-12-23T19:35:58.694Z,10.23
2023-12-23T19:38:25.387Z,9.94
2023-12-23T19:40:52.161Z,9.84
2023-12-23T19:43:19.962Z,9.86
2023-12-23T19:45:51.062Z,10.01
2023-12-23T19:48:17.834Z,9.98
2023-12-23T19:50:44.717Z,9.66
2023-12-23T19:53:11.403Z,9.59
2023-12-23T19:55:40.605Z,9.65
2023-12-23T19:58:07.402Z,9.80
2023-12-23T20:00:34.146Z,9.92
2023-12-23T20:03:00.879Z,9.87
2023-12-23T20:05:27.785Z,9.95
2023-12-23T20:07:54.648Z,10.07
2023-12-23T20:10:22.782Z,10.11
2023-12-23T20:12:49.972Z,9.83
2023-12-23T20:15:17.021Z,9.58
2023-12-23T20:17:44.083Z,9.69
2023-12-23T20:20:11.169Z,9.75
2023-12-23T20:22:39.705Z,9.83
2023-12-23T20:25:07.083Z,9.83
2023-12-23T20:27:33.840Z,9.84
2023-12-23T20:30:00.727Z,9.85
2023-12-23T20:32:28.944Z,9.67
2023-12-23T20:34:55.744Z,9.50
2023-12-23T20:37:22.548Z,9.38
2023-12-23T20:39:49.812Z,9.24
2023-12-23T20:42:16.581Z,9.25
2023-12-23T20:44:43.494Z,9.35
2023-12-23T20:47:10.292Z,9.35
2023-12-23T20:49:37.121Z,9.26
2023-12-23T20:52:03.926Z,9.19
2023-12-23T20:54:30.636Z,9.27
2023-12-23T20:56:57.449Z,9.40
2023-12-23T20:59:24.937Z,9.40
2023-12-23T21:01:51.952Z,9.25
2023-12-23T21:04:18.802Z,9.41
2023-12-23T21:06:45.502Z,9.42
2023-12-23T21:09:12.220Z,9.28
2023-12-23T21:11:39.068Z,9.32
2023-12-23T21:14:05.950Z,9.39
2023-12-23T21:16:32.750Z,9.51
2023-12-23T21:18:59.771Z,9.60
2023-12-23T21:21:26.544Z,9.47
2023-12-23T21:23:53.328Z,9.59
2023-12-23T21:26:23.511Z,9.66
2023-12-23T21:28:50.473Z,9.71
2023-12-23T21:31:17.260Z,9.82
2023-12-23T21:33:44.185Z,9.85
2023-12-23T21:36:11.005Z,9.75
2023-12-23T21:38:37.928Z,9.73
2023-12-23T21:41:04.833Z,9.84
2023-12-23T21:43:31.599Z,9.91
2023-12-23T21:45:58.357Z,9.63
2023-12-23T21:48:25.180Z,9.59
2023-12-23T21:50:55.528Z,9.69
2023-12-23T21:53:23.856Z,9.78
2023-12-23T21:55:51.052Z,9.84
2023-12-23T21:58:17.801Z,9.84
2023-12-23T22:00:44.614Z,9.85
2023-12-23T22:03:11.578Z,9.79
2023-12-23T22:05:38.502Z,9.74
2023-12-23T22:08:05.551Z,9.89
2023-12-23T22:10:32.263Z,10.09
2023-12-23T22:12:58.990Z,9.98
2023-12-23T22:15:25.762Z,9.96
2023-12-23T22:17:52.701Z,10.11
2023-12-23T22:20:19.545Z,10.21
2023-12-23T22:22:46.265Z,10.05
2023-12-23T22:25:13.016Z,10.14
2023-12-23T22:27:39.755Z,10.20
2023-12-23T22:30:06.880Z,10.11
2023-12-23T22:32:34.865Z,10.01
2023-12-23T22:35:01.636Z,9.86
2023-12-23T22:37:29.158Z,9.99
2023-12-23T22:39:55.884Z,10.02
2023-12-23T22:42:22.605Z,10.00
2023-12-23T22:44:49.351Z,9.85
2023-12-23T22:47:16.110Z,9.77
2023-12-23T22:49:42.977Z,9.85
2023-12-23T22:52:09.788Z,10.01
2023-12-23T22:54:38.546Z,10.18
2023-12-23T22:57:05.238Z,10.25
2023-12-23T22:59:31.952Z,10.30
2023-12-23T23:01:58.731Z,10.28
2023-12-23T23:04:25.385Z,10.29
2023-12-23T23:06:52.126Z,10.41
2023-12-23T23:09:19.274Z,10.43
2023-12-23T23:11:45.984Z,10.28
2023-12-23T23:14:12.831Z,10.13
2023-12-23T23:16:39.727Z,9.99
2023-12-23T23:19:07.628Z,9.91
2023-12-23T23:21:34.990Z,9.82
2023-12-23T23:24:02.002Z,9.92
2023-12-23T23:26:28.760Z,10.10
2023-12-23T23:28:55.513Z,10.17
2023-12-23T23:31:22.328Z,10.11
2023-12-23T23:33:49.143Z,10.02
2023-12-23T23:36:16.830Z,10.03
2023-12-23T23:38:43.663Z,9.90
2023-12-23T23:41:10.949Z,9.98
2023-12-23T23:43:37.828Z,9.87
2023-12-23T23:46:07.754Z,9.63
2023-12-23T23:48:34.420Z,9.71
2023-12-23T23:51:01.103Z,9.57
2023-12-23T23:53:27.858Z,9.62
2023-12-23T23:55:54.581Z,9.73
2023-12-23T23:58:21.367Z,9.80
